Aérodrome :
LOGIN :

S'inscrire | Disclaimer

   EN    FR    IT 

 










Légende :    VFR   VFR Marginal   IFR   IFR Intensif   IFR Très Intensif
Visi : 
Plafond : 
>= 8 km
>= 3000ft
5 à 8 km
1000 à 3000 ft
1500m à 5 km
500 à 1000 ft
800 à 1500m
200 à 500 ft
< 800m
< 200 ft
Symboles :   Orages  Brouillard  Fortes neiges  Fortes précipitations  Vent > 20 kt
SIGMETs :   Divers  Orages  Givrage  Turbulence  Onde Orograph.  Cendres Volcan.







- Altitude de l'aérodrome : 124 ft
- Code IATA : AVN
- Voir les cartes d'approche


LFMV - Avignon Caumont

DERNIER METAR :
  • 221530Z AUTO 21011KT CAVOK 25/09 Q0999 BECMG 14010KT

METARs EXPIRÉS :
  • 221500Z AUTO VRB05KT 9999 ///TCU 26/08 Q0999 BECMG NSC
  • 221430Z AUTO 14005KT 100V160 CAVOK 26/07 Q0999 NOSIG
  • 221400Z AUTO 15005KT 090V220 CAVOK 25/06 Q1000 NOSIG
  • 221330Z AUTO VRB03KT CAVOK 27/06 Q1000 NOSIG
  • 221300Z AUTO 34004KT 260V030 CAVOK 26/05 Q1000 BECMG 18010KT

TAF TAF LFMV
Valide du 22 à 15h jusqu'au 23 à 15h UTC


221400Z 2215/2315 14010KT CAVOK
TEMPO 2218/2309 RA BKN050
ATIS : +33 4 90 84 32 84
Pas de NOTAMs connus pour ce terrain.
1 SIGMET publié pour la FIR Marseille (LFMM) :
 
Turbulence forte
LFMM SIGMET 6 VALID 221500/221900 LFPW
LFMM MARSEILLE FIR/UIR SEV TURB FCST WI N4400 E00700 - N4315 E00945 - N4115 E00945 - N4115 E00800 - N4245 E00400 - N4400 E00700 SFC/FL100 STNR NC=



MET'MAP, la Météo Aéronautique d'un coup d'oeil ! - Copyright ORBIFLY Décembre 2007 - Disclaimer

ORBIFLY MET'MAP TEAM :

Programmation & Développement : Alexandra Zaïnal
Conception & Développement : Baudouin d'Aumeries
Co-Programmation & Développement : Marc-Olivier Méhu
Soutien technique & logistique : Manuel Goepfert

Contact : metmap@orbifly.com




SOURCES & CREDITS :

   NOAA